Tenakee Springs, AK (99841)

2:26 AM AKDT on October 01, 2014 (GMT -0800)
RAWS HOONAH AK US | Change Station
CLOSE
Current Station
Personal Weather Station
Location: Tenakee Springs, AK
Elevation: 450 ft
Nearby Weather Stations

Elev 450 ft 57.80 °N, 135.13 °W | Updated 31 minutes ago

Clear
Clear
35 °F
Feels Like 35 °F
N
1
Wind Variable Wind from North
Gusts 5.0 mph

Today
High -- | Low -- °F
--% Chance of Precip.
Yesterday
High -- | Low -- °F
Precip. -- in
7:05 AM 6:34 PM
Waxing Crescent, 46% visible
Pressure 30.12 in
Visibility 10.0 miles
Clouds Clear
Windchill 35 °F
Dew Point 35 °F
Humidity 100%
Rainfall 0.82 in
Snow Depth Not available.
UV 0 out of 12
Pollen Not available.
Air Quality Not available.
Flu Activity Not available.
METAR PAOH 010956Z AUTO 00000KT 10SM CLR 03/03 A3012 RMK AO2 TSNO T00270027 SLP200 $

More Conditions Fewer Conditions

Pressure 30.12 in
Visibility 10.0 miles
Clouds Clear
Windchill 35 °F
Dew Point 35 °F
Humidity 100%
Rainfall 0.82 in
Snow Depth Not available.
UV 0 out of 12
Pollen Not available.
Air Quality Not available.
Flu Activity Not available.
METAR PAOH 010956Z AUTO 00000KT 10SM CLR 03/03 A3012 RMK AO2 TSNO T00270027 SLP200 $

More Conditions Fewer Conditions

10-Day Weather Forecast

Almanac

Astronomy

Oct. 01, 2014 Rise Set
Actual Time 7:05 AM AKDT 6:34 PM AKDT
Civil Twilight 6:26 AM AKDT 7:12 PM AKDT
Nautical Twilight 5:40 AM AKDT 7:58 PM AKDT
Astronomical Twilight 4:53 AM AKDT 8:45 PM AKDT
Moon 3:07 PM AKDT 11:22 PM AKDT
Length of Visible Light 12h 46m
Length of Day
11h 29m
Tomorrow will be 4m 56s shorter.
Waxing Crescent, 46% of the Moon is Illuminated
Today
Waxing Crescent
Oct 1
First Quarter
Oct 8
Full
Oct 15
Last Quarter
Oct 23
New

Today's Extremes

State Highs State Lows

Community

WunderPhotos

Upload Photos

1,757,905 photos uploaded!

WunderBlogs® & News

Nearby

Snow Depth

Station Depth Elevation
Cooper Lake 1 in 1200 ft
Rocky Point 2 in 500 ft
Atigun Pass 102 in 4800 ft
Point Mackenzie 1 in 200 ft
Upper Chena 7 in 2850 ft

Earthquake Activity

City Distance Mag. Time & Date
No recent earthquake activity has been reported nearby.
Minimum magnitude displayed is 2.5.

Coastal Water Temperatures

Place Temperature
No Stations Reporting

Nearby Weather Stations